ACA125 CYYZ-KORD
Flight info
| Callsign | ACA125 |
|---|---|
| Flight time | N/A |
| Altitude | 38000 |
| Route | VITOV DCT REVUD DCT LEPOS DCT RAKAP DCT CFTCS DCT HOCKE DCT URSSA |
| Aircraft | A343/H-SDE2E3FGHIJ4J5M1RWXY/LB1D1 |
Departure
| Time | 2026-05-06 14:28 |
|---|---|
| Airport | Toronto Pearson International Airport (CYYZ) |
Arrival
| Time | N/A |
|---|---|
| Airport | Chicago O'Hare International Airport (KORD) |
| Time | Latitude | Longitude | Altitude | Speed | Heading |
|---|---|---|---|---|---|
| 2026-05-06 14:22 | 43.68589 | -79.62708 | 569 ft | 0 kts | 329° |
| 2026-05-06 14:23 | 43.68575 | -79.62696 | 572 ft | 2 kts | 329° |
| 2026-05-06 14:23 | 43.68561 | -79.62685 | 573 ft | 2 kts | 329° |
| 2026-05-06 14:24 | 43.68546 | -79.62673 | 572 ft | 3 kts | 326° |
| 2026-05-06 14:24 | 43.68532 | -79.62658 | 568 ft | 3 kts | 307° |
| 2026-05-06 14:24 | 43.68522 | -79.62638 | 570 ft | 2 kts | 289° |
| 2026-05-06 14:24 | 43.68518 | -79.62616 | 570 ft | 3 kts | 271° |
| 2026-05-06 14:25 | 43.68515 | -79.62615 | 571 ft | 4 kts | 257° |
| 2026-05-06 14:25 | 43.68481 | -79.62686 | 566 ft | 14 kts | 239° |
| 2026-05-06 14:25 | 43.68529 | -79.62819 | 573 ft | 21 kts | 315° |
| 2026-05-06 14:25 | 43.68655 | -79.62982 | 568 ft | 29 kts | 317° |
| 2026-05-06 14:26 | 43.68818 | -79.63193 | 572 ft | 35 kts | 316° |
| 2026-05-06 14:26 | 43.69002 | -79.63435 | 572 ft | 30 kts | 316° |
| 2026-05-06 14:26 | 43.69100 | -79.63524 | 573 ft | 12 kts | 0° |
| 2026-05-06 14:26 | 43.69190 | -79.63453 | 577 ft | 19 kts | 32° |
| 2026-05-06 14:27 | 43.69338 | -79.63389 | 574 ft | 26 kts | 25° |
| 2026-05-06 14:27 | 43.69480 | -79.63340 | 575 ft | 3 kts | 319° |
| 2026-05-06 14:27 | 43.69478 | -79.63404 | 576 ft | 11 kts | 250° |
| 2026-05-06 14:27 | 43.69441 | -79.63465 | 575 ft | 12 kts | 227° |
| 2026-05-06 14:28 | 43.69205 | -79.63813 | 574 ft | 85 kts | 226° |
| 2026-05-06 14:28 | 43.68640 | -79.64621 | 573 ft | 147 kts | 226° |
| 2026-05-06 14:28 | 43.67830 | -79.65764 | 821 ft | 175 kts | 224° |
| 2026-05-06 14:28 | 43.67049 | -79.67092 | 1656 ft | 181 kts | 242° |
| 2026-05-06 14:29 | 43.66625 | -79.68753 | 2415 ft | 187 kts | 262° |
| 2026-05-06 14:29 | 43.66736 | -79.70501 | 3292 ft | 183 kts | 294° |
| 2026-05-06 14:29 | 43.67543 | -79.72055 | 3581 ft | 224 kts | 312° |
| 2026-05-06 14:29 | 43.68768 | -79.73721 | 3591 ft | 272 kts | 316° |
| 2026-05-06 14:30 | 43.70205 | -79.75609 | 4165 ft | 293 kts | 315° |
| 2026-05-06 14:30 | 43.71743 | -79.77665 | 4491 ft | 324 kts | 313° |
| 2026-05-06 14:30 | 43.73086 | -79.80334 | 4747 ft | 354 kts | 299° |
| 2026-05-06 14:30 | 43.74226 | -79.83261 | 4998 ft | 339 kts | 297° |
| 2026-05-06 14:31 | 43.75279 | -79.86070 | 5248 ft | 313 kts | 296° |
| 2026-05-06 14:31 | 43.76264 | -79.88712 | 5530 ft | 313 kts | 296° |
| 2026-05-06 14:31 | 43.77284 | -79.91464 | 5807 ft | 326 kts | 296° |
| 2026-05-06 14:31 | 43.78317 | -79.94248 | 6094 ft | 324 kts | 296° |
| 2026-05-06 14:32 | 43.79350 | -79.97031 | 6350 ft | 326 kts | 296° |
| 2026-05-06 14:32 | 43.80390 | -79.99826 | 6677 ft | 327 kts | 296° |
| 2026-05-06 14:32 | 43.81441 | -80.02630 | 7064 ft | 330 kts | 296° |
| 2026-05-06 14:32 | 43.82509 | -80.05459 | 7443 ft | 331 kts | 296° |
| 2026-05-06 14:33 | 43.83567 | -80.08243 | 7821 ft | 331 kts | 296° |
| 2026-05-06 14:33 | 43.84590 | -80.11098 | 8207 ft | 331 kts | 290° |
| 2026-05-06 14:33 | 43.85367 | -80.14103 | 8611 ft | 332 kts | 285° |
| 2026-05-06 14:33 | 43.85931 | -80.17196 | 8996 ft | 331 kts | 281° |
| 2026-05-06 14:34 | 43.86438 | -80.20309 | 9400 ft | 331 kts | 280° |
| 2026-05-06 14:34 | 43.86937 | -80.23425 | 9809 ft | 332 kts | 280° |
| 2026-05-06 14:34 | 43.87438 | -80.26571 | 10178 ft | 334 kts | 280° |
| 2026-05-06 14:34 | 43.87941 | -80.29713 | 10540 ft | 335 kts | 280° |
| 2026-05-06 14:35 | 43.88453 | -80.32862 | 10918 ft | 335 kts | 280° |
| 2026-05-06 14:35 | 43.88960 | -80.36022 | 11286 ft | 335 kts | 277° |
| 2026-05-06 14:35 | 43.88999 | -80.39228 | 11663 ft | 333 kts | 263° |
| 2026-05-06 14:35 | 43.88754 | -80.42379 | 12027 ft | 334 kts | 261° |
| 2026-05-06 14:36 | 43.88456 | -80.45623 | 12433 ft | 334 kts | 261° |
| 2026-05-06 14:36 | 43.88153 | -80.48776 | 12828 ft | 334 kts | 260° |
| 2026-05-06 14:36 | 43.87840 | -80.51964 | 13220 ft | 335 kts | 260° |
| 2026-05-06 14:36 | 43.87526 | -80.55165 | 13637 ft | 336 kts | 260° |
| 2026-05-06 14:37 | 43.87214 | -80.58385 | 13995 ft | 337 kts | 260° |
| 2026-05-06 14:37 | 43.86882 | -80.61599 | 14348 ft | 336 kts | 258° |
| 2026-05-06 14:37 | 43.86426 | -80.64792 | 14721 ft | 337 kts | 256° |
| 2026-05-06 14:37 | 43.85915 | -80.67966 | 15086 ft | 339 kts | 256° |
| 2026-05-06 14:38 | 43.85377 | -80.71156 | 15451 ft | 340 kts | 256° |
| 2026-05-06 14:38 | 43.84808 | -80.74337 | 15831 ft | 341 kts | 254° |
| 2026-05-06 14:38 | 43.84100 | -80.77470 | 16212 ft | 341 kts | 251° |
| 2026-05-06 14:38 | 43.83275 | -80.80573 | 16591 ft | 343 kts | 249° |
| 2026-05-06 14:39 | 43.82355 | -80.83630 | 16994 ft | 346 kts | 247° |
| 2026-05-06 14:39 | 43.81355 | -80.86664 | 17393 ft | 347 kts | 246° |
| 2026-05-06 14:39 | 43.80320 | -80.89694 | 17792 ft | 348 kts | 246° |
| 2026-05-06 14:39 | 43.79279 | -80.92679 | 18187 ft | 350 kts | 246° |
| 2026-05-06 14:40 | 43.78226 | -80.95720 | 18545 ft | 351 kts | 247° |
| 2026-05-06 14:40 | 43.77385 | -80.98908 | 18644 ft | 356 kts | 258° |
| 2026-05-06 14:40 | 43.76902 | -81.02256 | 18643 ft | 354 kts | 254° |
| 2026-05-06 14:40 | 43.76053 | -81.05435 | 18651 ft | 352 kts | 249° |
| 2026-05-06 14:41 | 43.75097 | -81.08542 | 18657 ft | 351 kts | 248° |
| 2026-05-06 14:41 | 43.74113 | -81.11634 | 18660 ft | 351 kts | 248° |
| 2026-05-06 14:41 | 43.73118 | -81.14716 | 18664 ft | 351 kts | 247° |
| 2026-05-06 14:41 | 43.72121 | -81.17786 | 18942 ft | 346 kts | 247° |
| 2026-05-06 14:42 | 43.71127 | -81.20830 | 19418 ft | 349 kts | 247° |
| 2026-05-06 14:42 | 43.70122 | -81.23903 | 19915 ft | 353 kts | 247° |
| 2026-05-06 14:42 | 43.69103 | -81.27011 | 20415 ft | 356 kts | 247° |
| 2026-05-06 14:42 | 43.68074 | -81.30147 | 20932 ft | 359 kts | 248° |
| 2026-05-06 14:43 | 43.67040 | -81.33294 | 21428 ft | 361 kts | 248° |
| 2026-05-06 14:43 | 43.65999 | -81.36460 | 21952 ft | 363 kts | 248° |
| 2026-05-06 14:43 | 43.64967 | -81.39597 | 22481 ft | 364 kts | 248° |
| 2026-05-06 14:43 | 43.63914 | -81.42795 | 23020 ft | 366 kts | 248° |
| 2026-05-06 14:44 | 43.62860 | -81.45993 | 23559 ft | 367 kts | 248° |
| 2026-05-06 14:44 | 43.61803 | -81.49205 | 24025 ft | 368 kts | 248° |
| 2026-05-06 14:44 | 43.60751 | -81.52422 | 24498 ft | 368 kts | 248° |
| 2026-05-06 14:45 | 43.58658 | -81.58895 | 25465 ft | 370 kts | 248° |
| 2026-05-06 14:45 | 43.57695 | -81.62181 | 25966 ft | 370 kts | 250° |
| 2026-05-06 14:45 | 43.56816 | -81.65510 | 26473 ft | 370 kts | 251° |
| 2026-05-06 14:45 | 43.56250 | -81.67732 | 26809 ft | 370 kts | 251° |
| 2026-05-06 14:46 | 43.55414 | -81.71078 | 27340 ft | 370 kts | 252° |
| 2026-05-06 14:46 | 43.54587 | -81.74437 | 27871 ft | 369 kts | 252° |
| 2026-05-06 14:46 | 43.53506 | -81.78881 | 28543 ft | 370 kts | 252° |
| 2026-05-06 14:46 | 43.52688 | -81.82267 | 28778 ft | 376 kts | 252° |
| 2026-05-06 14:47 | 43.51854 | -81.85734 | 28871 ft | 386 kts | 252° |
| 2026-05-06 14:47 | 43.50415 | -81.91729 | 28924 ft | 403 kts | 252° |
| 2026-05-06 14:48 | 43.48600 | -81.99229 | 28938 ft | 420 kts | 251° |
| 2026-05-06 14:48 | 43.46271 | -82.06732 | 28944 ft | 430 kts | 247° |
| 2026-05-06 14:49 | 43.43774 | -82.14131 | 28959 ft | 428 kts | 246° |
| 2026-05-06 14:49 | 43.41233 | -82.21529 | 28967 ft | 427 kts | 246° |
| 2026-05-06 14:50 | 43.38682 | -82.28919 | 28970 ft | 428 kts | 246° |
| 2026-05-06 14:50 | 43.36125 | -82.36311 | 28965 ft | 428 kts | 246° |
| 2026-05-06 14:51 | 43.33572 | -82.43685 | 28966 ft | 427 kts | 246° |
| 2026-05-06 14:51 | 43.31249 | -82.50596 | 28958 ft | 426 kts | 249° |
| 2026-05-06 14:52 | 43.29110 | -82.58168 | 28962 ft | 426 kts | 250° |
| 2026-05-06 14:52 | 43.27011 | -82.65769 | 28953 ft | 425 kts | 251° |
| 2026-05-06 14:53 | 43.24933 | -82.73342 | 28950 ft | 424 kts | 251° |
| 2026-05-06 14:53 | 43.22864 | -82.80924 | 28947 ft | 424 kts | 251° |
| 2026-05-06 14:54 | 43.20805 | -82.88498 | 28953 ft | 423 kts | 251° |
| 2026-05-06 14:54 | 43.18776 | -82.96007 | 28955 ft | 423 kts | 251° |
| 2026-05-06 14:55 | 43.16747 | -83.03574 | 28953 ft | 423 kts | 251° |
| 2026-05-06 14:55 | 43.14727 | -83.11152 | 28956 ft | 423 kts | 251° |
| 2026-05-06 14:56 | 43.12722 | -83.18726 | 28956 ft | 422 kts | 251° |
| 2026-05-06 14:56 | 43.10732 | -83.26290 | 28957 ft | 422 kts | 251° |
| 2026-05-06 14:57 | 43.08750 | -83.33874 | 28964 ft | 423 kts | 251° |
| 2026-05-06 14:57 | 43.06783 | -83.41458 | 28965 ft | 423 kts | 251° |
| 2026-05-06 14:58 | 43.04831 | -83.49035 | 28975 ft | 422 kts | 251° |
| 2026-05-06 14:58 | 43.02891 | -83.56621 | 28977 ft | 423 kts | 251° |
| 2026-05-06 14:59 | 43.01060 | -83.63814 | 28982 ft | 423 kts | 251° |
| 2026-05-06 14:59 | 42.99139 | -83.71410 | 28977 ft | 423 kts | 251° |
| 2026-05-06 15:00 | 42.97225 | -83.79004 | 28977 ft | 423 kts | 252° |
| 2026-05-06 15:00 | 42.95314 | -83.86624 | 28984 ft | 424 kts | 252° |
| 2026-05-06 15:01 | 42.93413 | -83.94240 | 28985 ft | 424 kts | 252° |
| 2026-05-06 15:01 | 42.91520 | -84.01856 | 28993 ft | 423 kts | 252° |
| 2026-05-06 15:02 | 42.89636 | -84.09478 | 28995 ft | 424 kts | 252° |
| 2026-05-06 15:02 | 42.88405 | -84.14478 | 28808 ft | 422 kts | 252° |
| 2026-05-06 15:04 | 42.87822 | -84.16853 | 28621 ft | 411 kts | 252° |
| 2026-05-06 15:05 | 42.86930 | -84.20486 | 28345 ft | 397 kts | 252° |
| 2026-05-06 15:05 | 42.86070 | -84.24001 | 28089 ft | 385 kts | 252° |
| 2026-05-06 15:05 | 42.85234 | -84.27423 | 27842 ft | 375 kts | 252° |
| 2026-05-06 15:05 | 42.84420 | -84.30770 | 27602 ft | 369 kts | 252° |
| 2026-05-06 15:06 | 42.83622 | -84.34059 | 27406 ft | 364 kts | 252° |
| 2026-05-06 15:06 | 42.82834 | -84.37321 | 27203 ft | 361 kts | 252° |
| 2026-05-06 15:06 | 42.82050 | -84.40572 | 27038 ft | 362 kts | 252° |
| 2026-05-06 15:06 | 42.81268 | -84.43835 | 26884 ft | 363 kts | 252° |
| 2026-05-06 15:07 | 42.80494 | -84.47073 | 26767 ft | 365 kts | 252° |
| 2026-05-06 15:07 | 42.79703 | -84.50402 | 26633 ft | 365 kts | 252° |
| 2026-05-06 15:07 | 42.78931 | -84.53655 | 26492 ft | 365 kts | 252° |
| 2026-05-06 15:07 | 42.78156 | -84.56934 | 26338 ft | 364 kts | 252° |
| 2026-05-06 15:08 | 42.77383 | -84.60202 | 26163 ft | 362 kts | 252° |
| 2026-05-06 15:08 | 42.76615 | -84.63467 | 25995 ft | 361 kts | 252° |
| 2026-05-06 15:08 | 42.75853 | -84.66709 | 25814 ft | 360 kts | 252° |
| 2026-05-06 15:08 | 42.75098 | -84.69946 | 25640 ft | 359 kts | 252° |
| 2026-05-06 15:09 | 42.74345 | -84.73176 | 25456 ft | 358 kts | 252° |
| 2026-05-06 15:09 | 42.73597 | -84.76408 | 25283 ft | 357 kts | 252° |
| 2026-05-06 15:09 | 42.72856 | -84.79622 | 25094 ft | 356 kts | 252° |
| 2026-05-06 15:09 | 42.72118 | -84.82835 | 24923 ft | 355 kts | 252° |
| 2026-05-06 15:10 | 42.71385 | -84.86042 | 24758 ft | 354 kts | 252° |
| 2026-05-06 15:10 | 42.70659 | -84.89237 | 24598 ft | 354 kts | 252° |
| 2026-05-06 15:10 | 42.69944 | -84.92397 | 24434 ft | 353 kts | 252° |
| 2026-05-06 15:10 | 42.69218 | -84.95627 | 24270 ft | 352 kts | 252° |
| 2026-05-06 15:11 | 42.68505 | -84.98810 | 24093 ft | 352 kts | 252° |
| 2026-05-06 15:11 | 42.67805 | -85.01953 | 23914 ft | 352 kts | 252° |
| 2026-05-06 15:11 | 42.67103 | -85.05131 | 23715 ft | 351 kts | 252° |
| 2026-05-06 15:11 | 42.66408 | -85.08303 | 23517 ft | 350 kts | 252° |
| 2026-05-06 15:12 | 42.65833 | -85.10937 | 23322 ft | 349 kts | 253° |
| 2026-05-06 15:12 | 42.65146 | -85.14092 | 23085 ft | 347 kts | 253° |
| 2026-05-06 15:12 | 42.64462 | -85.17237 | 22860 ft | 346 kts | 253° |
| 2026-05-06 15:12 | 42.63780 | -85.20363 | 22636 ft | 344 kts | 253° |
| 2026-05-06 15:13 | 42.63099 | -85.23475 | 22406 ft | 343 kts | 253° |